createdAt,value
2022-11-08T00:01:53.054Z,73.06
2022-11-08T00:04:24.978Z,73.13
2022-11-08T00:07:15.010Z,73.10
2022-11-08T00:10:05.074Z,73.44
2022-11-08T00:12:55.635Z,73.42
2022-11-08T00:15:27.332Z,73.15
2022-11-08T00:17:58.972Z,73.38
2022-11-08T00:20:30.543Z,73.67
2022-11-08T00:23:02.179Z,73.53
2022-11-08T00:25:33.776Z,73.28
2022-11-08T00:28:05.412Z,73.25
2022-11-08T00:30:36.984Z,73.26
2022-11-08T00:33:08.729Z,72.92
2022-11-08T00:35:40.288Z,73.04
2022-11-08T00:38:11.947Z,72.84
2022-11-08T00:40:43.523Z,72.86
2022-11-08T00:43:15.138Z,72.88
2022-11-08T00:45:46.712Z,73.00
2022-11-08T00:48:18.602Z,73.41
2022-11-08T00:50:50.508Z,73.51
2022-11-08T00:53:22.406Z,73.18
2022-11-08T00:56:05.636Z,73.39
2022-11-08T00:58:37.436Z,73.27
2022-11-08T01:01:17.424Z,72.97
2022-11-08T01:03:49.344Z,72.98
2022-11-08T01:06:22.583Z,73.01
2022-11-08T01:08:56.220Z,73.09
2022-11-08T01:11:28.322Z,73.59
2022-11-08T01:14:01.415Z,73.62
2022-11-08T01:16:33.876Z,73.89
2022-11-08T01:19:05.581Z,73.79
2022-11-08T01:21:37.460Z,73.77
2022-11-08T01:24:09.191Z,74.06
2022-11-08T01:26:40.757Z,74.52
2022-11-08T01:29:12.373Z,74.33
2022-11-08T01:31:44.047Z,74.64
2022-11-08T01:34:15.679Z,74.94
2022-11-08T01:36:47.254Z,74.89
2022-11-08T01:39:18.864Z,75.09
2022-11-08T01:41:50.432Z,74.87
2022-11-08T01:44:22.905Z,75.46
2022-11-08T01:46:54.763Z,75.27
2022-11-08T01:49:40.093Z,74.84
2022-11-08T01:52:27.867Z,74.72
2022-11-08T01:55:23.079Z,75.16
2022-11-08T01:58:06.497Z,75.02
2022-11-08T02:00:39.675Z,75.33
2022-11-08T02:03:14.106Z,75.17
2022-11-08T02:05:46.393Z,75.22
2022-11-08T02:08:26.561Z,75.01
2022-11-08T02:10:58.316Z,75.13
2022-11-08T02:13:31.871Z,75.19
2022-11-08T02:16:10.331Z,75.52
2022-11-08T02:18:44.151Z,75.67
2022-11-08T02:21:28.347Z,75.78
2022-11-08T02:24:02.886Z,75.72
2022-11-08T02:26:35.851Z,75.79
2022-11-08T02:29:41.143Z,76.30
2022-11-08T02:32:12.787Z,76.15
2022-11-08T02:34:52.775Z,77.08
2022-11-08T02:37:26.767Z,76.17
2022-11-08T02:39:58.428Z,76.79
2022-11-08T02:42:30.072Z,77.19
2022-11-08T02:45:01.655Z,76.54
2022-11-08T02:47:33.294Z,76.51
2022-11-08T02:50:05.384Z,76.61
2022-11-08T02:52:36.978Z,76.84
2022-11-08T02:55:08.596Z,76.86
2022-11-08T02:57:40.206Z,77.17
2022-11-08T03:00:12.572Z,76.84
2022-11-08T03:02:44.197Z,77.13
2022-11-08T03:05:15.828Z,76.90
2022-11-08T03:07:47.860Z,76.96
2022-11-08T03:10:19.713Z,77.48
2022-11-08T03:13:03.035Z,77.51
2022-11-08T03:15:34.633Z,77.29
2022-11-08T03:18:06.391Z,77.07
2022-11-08T03:20:37.977Z,77.63
2022-11-08T03:23:09.674Z,77.53
2022-11-08T03:25:41.277Z,77.59
2022-11-08T03:28:12.953Z,77.15
2022-11-08T03:30:44.638Z,77.03
2022-11-08T03:33:16.235Z,77.52
2022-11-08T03:35:49.056Z,77.73
2022-11-08T03:38:20.966Z,77.38
2022-11-08T03:40:52.548Z,77.63
2022-11-08T03:43:24.651Z,77.08
2022-11-08T03:45:56.269Z,77.09
2022-11-08T03:48:29.863Z,77.13
2022-11-08T03:51:01.464Z,77.82
2022-11-08T03:53:33.063Z,77.90
2022-11-08T03:56:04.947Z,77.30
2022-11-08T03:58:36.600Z,77.73
2022-11-08T04:01:09.550Z,78.13
2022-11-08T04:03:41.261Z,78.36
2022-11-08T04:06:12.836Z,79.03
2022-11-08T04:08:44.465Z,79.04
2022-11-08T04:11:34.634Z,79.06
2022-11-08T04:14:24.877Z,78.27
2022-11-08T04:16:58.744Z,78.66
2022-11-08T04:19:49.359Z,78.59
2022-11-08T04:22:20.911Z,78.90
2022-11-08T04:24:53.803Z,78.03
2022-11-08T04:27:25.417Z,78.24
2022-11-08T04:29:57.110Z,77.66
2022-11-08T04:32:28.686Z,78.22
2022-11-08T04:35:00.285Z,78.80
2022-11-08T04:37:31.892Z,79.42
2022-11-08T04:40:06.699Z,79.19
2022-11-08T04:42:38.565Z,79.52
2022-11-08T04:45:10.956Z,79.48
2022-11-08T04:47:48.394Z,79.22
2022-11-08T04:50:20.289Z,79.55
2022-11-08T04:52:53.579Z,78.87
2022-11-08T04:55:25.308Z,78.71
2022-11-08T04:57:58.960Z,78.87
2022-11-08T05:00:30.560Z,78.20
2022-11-08T05:03:02.901Z,78.52
2022-11-08T05:05:34.739Z,78.47
2022-11-08T05:08:06.514Z,78.53
2022-11-08T05:10:38.103Z,78.25
2022-11-08T05:13:09.791Z,78.72
2022-11-08T05:15:43.372Z,78.44
2022-11-08T05:18:16.473Z,78.47
2022-11-08T05:21:12.662Z,78.60
2022-11-08T05:23:45.563Z,78.86
2022-11-08T05:26:18.936Z,78.69
2022-11-08T05:28:53.876Z,79.59
2022-11-08T05:31:25.605Z,79.28
2022-11-08T05:33:57.350Z,79.70
2022-11-08T05:36:29.191Z,79.13
2022-11-08T05:39:03.893Z,79.66
2022-11-08T05:41:35.477Z,79.70
2022-11-08T05:44:07.099Z,79.23
2022-11-08T05:46:38.693Z,79.87
2022-11-08T05:49:10.277Z,79.49
2022-11-08T05:51:41.834Z,78.84
2022-11-08T05:54:13.531Z,79.25
2022-11-08T05:56:45.175Z,79.34
2022-11-08T05:59:16.859Z,79.45
2022-11-08T06:01:48.482Z,80.06
2022-11-08T06:04:20.107Z,80.12
2022-11-08T06:06:51.744Z,79.20
2022-11-08T06:09:23.464Z,79.66
2022-11-08T06:11:55.063Z,79.54
2022-11-08T06:14:26.632Z,78.98
2022-11-08T06:16:58.221Z,78.85
2022-11-08T06:19:30.152Z,78.91
2022-11-08T06:22:01.824Z,78.14
2022-11-08T06:24:33.362Z,78.54
2022-11-08T06:27:04.992Z,78.22
2022-11-08T06:29:36.685Z,78.01
2022-11-08T06:32:10.427Z,76.77
2022-11-08T06:34:42.072Z,74.96
2022-11-08T06:37:14.097Z,71.62
2022-11-08T06:39:45.775Z,68.92
2022-11-08T06:42:17.432Z,65.64
2022-11-08T06:44:52.200Z,61.26
2022-11-08T06:47:26.824Z,58.40
2022-11-08T06:49:58.239Z,54.07
2022-11-08T06:52:29.850Z,51.51
2022-11-08T06:55:01.459Z,48.79
2022-11-08T06:57:33.601Z,46.13
2022-11-08T07:00:05.746Z,43.48
2022-11-08T07:02:37.476Z,41.59
2022-11-08T07:05:09.244Z,39.78
2022-11-08T07:07:40.945Z,37.71
2022-11-08T07:10:13.997Z,36.08
2022-11-08T07:12:45.886Z,34.27
2022-11-08T07:15:18.672Z,32.76
2022-11-08T07:17:50.319Z,31.27
2022-11-08T07:20:22.377Z,29.42
2022-11-08T07:22:57.556Z,27.93
2022-11-08T07:25:30.511Z,28.04
2022-11-08T07:28:04.557Z,27.03
2022-11-08T07:30:36.246Z,26.90
2022-11-08T07:33:07.837Z,27.15
2022-11-08T07:35:39.773Z,26.69
2022-11-08T07:38:11.354Z,26.36
2022-11-08T07:40:43.241Z,25.86
2022-11-08T07:43:15.131Z,24.97
2022-11-08T07:45:55.450Z,24.31
2022-11-08T07:48:28.955Z,25.24
2022-11-08T07:51:00.578Z,25.13
2022-11-08T07:53:32.238Z,24.31
2022-11-08T07:56:03.955Z,22.95
2022-11-08T07:58:35.842Z,23.15
2022-11-08T08:01:07.582Z,23.26
2022-11-08T08:03:39.243Z,23.24
2022-11-08T08:06:11.056Z,23.82
2022-11-08T08:08:42.792Z,24.88
2022-11-08T08:11:15.158Z,24.45
2022-11-08T08:13:46.744Z,24.68
2022-11-08T08:16:18.772Z,24.62
2022-11-08T08:18:56.455Z,23.96
2022-11-08T08:21:28.485Z,23.77
2022-11-08T08:24:00.091Z,23.96
2022-11-08T08:26:31.844Z,23.22
2022-11-08T08:29:03.496Z,23.34
2022-11-08T08:31:35.067Z,22.72
2022-11-08T08:34:09.561Z,22.25
2022-11-08T08:36:42.051Z,21.43
2022-11-08T08:39:13.872Z,21.19
2022-11-08T08:41:45.440Z,20.87
2022-11-08T08:44:17.161Z,21.69
2022-11-08T08:46:49.017Z,22.01
2022-11-08T08:49:21.561Z,22.17
2022-11-08T08:51:53.179Z,22.27
2022-11-08T08:54:29.338Z,22.54
2022-11-08T08:57:01.174Z,23.28
2022-11-08T09:02:24.358Z,25.14
2022-11-08T09:04:56.691Z,25.00
2022-11-08T09:07:28.265Z,26.10
2022-11-08T09:10:01.060Z,26.16
2022-11-08T09:12:33.044Z,25.46
2022-11-08T09:15:06.731Z,25.19
2022-11-08T09:17:38.332Z,25.40
2022-11-08T09:20:11.083Z,25.80
2022-11-08T09:22:42.709Z,25.45
2022-11-08T09:25:14.443Z,25.58
2022-11-08T09:27:46.384Z,24.51
2022-11-08T09:30:18.047Z,25.21
2022-11-08T09:33:02.131Z,25.65
2022-11-08T09:35:34.296Z,25.78
2022-11-08T09:38:05.886Z,26.15
2022-11-08T09:40:42.943Z,26.57
2022-11-08T09:43:46.384Z,26.05
2022-11-08T09:46:44.184Z,26.63
2022-11-08T09:49:22.642Z,26.06
2022-11-08T09:51:54.481Z,26.94
2022-11-08T09:54:40.668Z,26.89
2022-11-08T09:57:19.720Z,26.96
2022-11-08T09:59:58.556Z,27.63
2022-11-08T10:02:34.542Z,28.09
2022-11-08T10:05:12.703Z,27.83
2022-11-08T10:07:57.809Z,27.70
2022-11-08T10:11:12.301Z,27.78
2022-11-08T10:13:57.554Z,28.34
2022-11-08T10:17:07.153Z,28.17
2022-11-08T10:20:16.384Z,28.29
2022-11-08T10:23:26.726Z,27.73
2022-11-08T10:26:08.239Z,29.08
2022-11-08T10:29:07.247Z,29.19
2022-11-08T10:31:41.651Z,29.90
2022-11-08T10:34:17.857Z,30.83
2022-11-08T10:36:54.668Z,31.96
2022-11-08T10:39:36.524Z,32.67
2022-11-08T10:42:37.412Z,33.37
2022-11-08T10:45:10.325Z,34.36
2022-11-08T10:47:46.143Z,34.58
2022-11-08T10:50:22.627Z,34.31
2022-11-08T10:52:59.579Z,35.31
2022-11-08T10:55:39.214Z,35.11
2022-11-08T10:58:29.855Z,35.86
2022-11-08T11:01:19.679Z,36.11
2022-11-08T11:03:53.273Z,36.15
2022-11-08T11:06:31.000Z,36.40
2022-11-08T11:09:18.623Z,37.04
2022-11-08T11:11:58.439Z,37.18
2022-11-08T11:14:30.042Z,37.61
2022-11-08T11:17:07.542Z,37.36
2022-11-08T11:19:44.537Z,39.21
2022-11-08T11:22:16.159Z,38.02
2022-11-08T11:24:51.630Z,37.90
2022-11-08T11:27:31.068Z,39.46
2022-11-08T11:30:28.116Z,38.92
2022-11-08T11:33:04.814Z,38.92
2022-11-08T11:35:47.650Z,39.08
2022-11-08T11:38:34.698Z,39.30
2022-11-08T11:41:17.040Z,38.14
2022-11-08T11:44:07.130Z,39.28
2022-11-08T11:46:52.234Z,38.98
2022-11-08T11:49:25.643Z,39.32
2022-11-08T11:52:00.309Z,38.93
2022-11-08T11:54:34.811Z,40.04
2022-11-08T11:57:19.164Z,39.23
2022-11-08T12:00:09.597Z,39.64
2022-11-08T12:03:12.651Z,40.08
2022-11-08T12:06:06.107Z,40.17
2022-11-08T12:08:48.521Z,39.32
2022-11-08T12:11:35.035Z,39.23
2022-11-08T12:14:35.708Z,40.60
2022-11-08T12:17:25.602Z,40.01
2022-11-08T12:20:26.916Z,40.23
2022-11-08T12:23:07.768Z,39.79
2022-11-08T12:25:53.117Z,40.04
2022-11-08T12:28:47.149Z,40.36
2022-11-08T12:31:33.992Z,40.92
2022-11-08T12:34:30.753Z,41.52
2022-11-08T12:37:28.934Z,41.20
2022-11-08T12:40:07.070Z,41.15
2022-11-08T12:42:57.093Z,41.39
2022-11-08T12:45:56.874Z,41.01
2022-11-08T12:48:41.304Z,40.79
2022-11-08T12:51:27.698Z,40.64
2022-11-08T12:54:18.249Z,41.03
2022-11-08T12:56:52.594Z,40.97
2022-11-08T12:59:48.029Z,40.80
2022-11-08T13:02:26.705Z,41.23
2022-11-08T13:05:46.416Z,41.58
2022-11-08T13:08:36.160Z,42.03
2022-11-08T13:11:16.316Z,42.19
2022-11-08T13:13:52.969Z,42.51
2022-11-08T13:16:27.961Z,42.60
2022-11-08T13:19:01.424Z,42.64
2022-11-08T13:21:42.156Z,42.54
2022-11-08T13:24:38.397Z,42.46
2022-11-08T13:27:24.597Z,42.92
2022-11-08T13:30:02.486Z,43.10
2022-11-08T13:33:01.477Z,43.45
2022-11-08T13:35:41.130Z,43.01
2022-11-08T13:38:48.259Z,43.22
2022-11-08T13:41:22.930Z,43.25
2022-11-08T13:43:56.075Z,43.20
2022-11-08T13:46:30.415Z,43.43
2022-11-08T13:49:06.021Z,43.60
2022-11-08T13:51:42.057Z,44.22
2022-11-08T13:54:22.706Z,44.22
2022-11-08T13:56:57.835Z,44.04
2022-11-08T13:59:32.621Z,44.20
2022-11-08T14:02:29.601Z,44.09
2022-11-08T14:05:28.631Z,43.88
2022-11-08T14:08:21.829Z,43.96
2022-11-08T14:11:12.158Z,44.24
2022-11-08T14:14:28.422Z,44.75
2022-11-08T14:17:26.175Z,44.86
2022-11-08T14:20:30.139Z,45.09
2022-11-08T14:23:26.199Z,45.31
2022-11-08T14:25:59.967Z,45.53
2022-11-08T14:28:33.084Z,45.80
2022-11-08T14:31:08.007Z,45.96
2022-11-08T14:33:42.759Z,46.03
2022-11-08T14:36:17.276Z,46.55
2022-11-08T14:38:49.994Z,46.46
2022-11-08T14:41:29.272Z,46.21
2022-11-08T14:44:02.528Z,46.56
2022-11-08T14:46:39.976Z,46.55
2022-11-08T14:49:15.576Z,46.79
2022-11-08T14:51:47.459Z,46.84
2022-11-08T14:54:26.846Z,46.98
2022-11-08T14:56:58.450Z,46.91
2022-11-08T14:59:30.140Z,47.27
2022-11-08T15:02:01.776Z,47.29
2022-11-08T15:04:40.113Z,47.66
2022-11-08T15:07:11.911Z,48.01
2022-11-08T15:09:43.586Z,48.19
2022-11-08T15:12:18.521Z,48.55
2022-11-08T15:15:01.607Z,48.87
2022-11-08T15:17:38.332Z,49.10
2022-11-08T15:20:17.528Z,49.37
2022-11-08T15:22:52.879Z,49.31
2022-11-08T15:25:34.683Z,49.79
2022-11-08T15:28:25.495Z,50.38
2022-11-08T15:31:01.094Z,50.67
2022-11-08T15:33:36.026Z,50.54
2022-11-08T15:36:15.510Z,50.83
2022-11-08T15:38:50.065Z,51.12
2022-11-08T15:41:32.965Z,51.59
2022-11-08T15:44:14.363Z,51.77
2022-11-08T15:46:46.383Z,52.02
2022-11-08T15:49:28.196Z,52.17
2022-11-08T15:51:59.843Z,52.24
2022-11-08T15:54:31.425Z,52.43
2022-11-08T15:57:04.992Z,52.79
2022-11-08T15:59:37.600Z,52.87
2022-11-08T16:02:13.423Z,53.26
2022-11-08T16:04:45.035Z,53.34
2022-11-08T16:07:16.949Z,53.64
2022-11-08T16:09:48.601Z,53.88
2022-11-08T16:12:20.200Z,54.17
2022-11-08T16:14:52.030Z,54.08
2022-11-08T16:17:23.612Z,54.70
2022-11-08T16:19:55.197Z,54.79
2022-11-08T16:22:26.839Z,54.86
2022-11-08T16:24:58.383Z,55.23
2022-11-08T16:27:30.042Z,55.36
2022-11-08T16:30:01.704Z,56.00
2022-11-08T16:32:33.338Z,56.75
2022-11-08T16:35:05.284Z,57.20
2022-11-08T16:37:37.786Z,57.52
2022-11-08T16:40:17.040Z,58.17
2022-11-08T16:42:50.920Z,57.73
2022-11-08T16:45:43.423Z,58.20
2022-11-08T16:48:18.619Z,58.72
2022-11-08T16:50:50.496Z,59.50
2022-11-08T16:53:22.128Z,59.50
2022-11-08T16:55:53.823Z,60.10
2022-11-08T16:58:27.940Z,60.24
2022-11-08T17:01:09.966Z,60.62
2022-11-08T17:03:42.436Z,60.76
2022-11-08T17:06:16.603Z,60.95
2022-11-08T17:08:51.332Z,61.52
2022-11-08T17:11:23.500Z,62.19
2022-11-08T17:13:55.379Z,62.09
2022-11-08T17:16:27.290Z,62.17
2022-11-08T17:18:59.156Z,62.55
2022-11-08T17:21:44.117Z,62.72
2022-11-08T17:24:21.672Z,63.17
2022-11-08T17:26:54.038Z,63.54
2022-11-08T17:29:25.868Z,63.76
2022-11-08T17:31:57.503Z,63.60
2022-11-08T17:34:29.569Z,64.17
2022-11-08T17:37:01.189Z,64.17
2022-11-08T17:39:33.148Z,64.52
2022-11-08T17:42:09.198Z,64.84
2022-11-08T17:44:40.884Z,64.89
2022-11-08T17:47:12.696Z,65.22
2022-11-08T17:49:44.383Z,65.55
2022-11-08T17:52:19.594Z,65.51
2022-11-08T17:54:53.104Z,65.67
2022-11-08T17:57:24.907Z,65.99
2022-11-08T17:59:59.755Z,66.39
2022-11-08T18:02:31.867Z,66.31
2022-11-08T18:05:03.760Z,66.74
2022-11-08T18:07:35.389Z,66.38
2022-11-08T18:10:08.062Z,66.58
2022-11-08T18:12:40.259Z,66.54
2022-11-08T18:15:11.864Z,66.38
2022-11-08T18:20:24.948Z,66.01
2022-11-08T18:22:56.525Z,66.11
2022-11-08T18:25:28.240Z,65.89
2022-11-08T18:28:00.047Z,66.07
2022-11-08T18:30:35.873Z,66.08
2022-11-08T18:33:07.755Z,66.29
2022-11-08T18:35:39.832Z,65.94
2022-11-08T18:38:12.771Z,66.22
2022-11-08T18:40:45.539Z,66.52
2022-11-08T18:43:17.456Z,66.87
2022-11-08T18:45:49.209Z,66.82
2022-11-08T18:48:20.836Z,66.42
2022-11-08T18:50:52.496Z,66.71
2022-11-08T18:53:27.140Z,66.15
2022-11-08T18:55:58.735Z,66.14
2022-11-08T18:58:30.360Z,65.69
2022-11-08T19:01:02.280Z,65.88
2022-11-08T19:03:36.355Z,66.09
2022-11-08T19:06:08.544Z,65.92
2022-11-08T19:08:40.140Z,65.88
2022-11-08T19:11:13.169Z,65.73
2022-11-08T19:13:44.757Z,65.96
2022-11-08T19:16:19.018Z,65.99
2022-11-08T19:18:50.687Z,66.00
2022-11-08T19:21:25.079Z,66.31
2022-11-08T19:23:58.679Z,66.41
2022-11-08T19:26:32.851Z,66.38
2022-11-08T19:29:05.074Z,66.71
2022-11-08T19:31:37.038Z,66.55
2022-11-08T19:34:09.698Z,67.20
2022-11-08T19:36:43.640Z,66.82
2022-11-08T19:39:15.943Z,67.03
2022-11-08T19:41:47.731Z,67.01
2022-11-08T19:44:21.627Z,67.17
2022-11-08T19:46:53.258Z,67.49
2022-11-08T19:49:26.365Z,67.77
2022-11-08T19:51:57.971Z,67.49
2022-11-08T19:54:29.607Z,67.42
2022-11-08T19:57:05.729Z,67.55
2022-11-08T19:59:37.890Z,67.57
2022-11-08T20:02:09.728Z,68.06
2022-11-08T20:04:41.480Z,68.03
2022-11-08T20:07:14.813Z,67.89
2022-11-08T20:09:46.488Z,67.79
2022-11-08T20:12:18.193Z,68.26
2022-11-08T20:14:49.961Z,68.20
2022-11-08T20:17:21.620Z,68.24
2022-11-08T20:19:53.388Z,68.27
2022-11-08T20:22:25.092Z,68.61
2022-11-08T20:24:56.733Z,68.72
2022-11-08T20:27:30.432Z,68.95
2022-11-08T20:30:02.137Z,68.83
2022-11-08T20:32:33.819Z,68.88
2022-11-08T20:35:05.904Z,69.00
2022-11-08T20:37:37.513Z,68.72
2022-11-08T20:40:09.792Z,69.24
2022-11-08T20:42:42.452Z,69.10
2022-11-08T20:45:15.344Z,69.33
2022-11-08T20:47:48.234Z,69.31
2022-11-08T20:50:20.115Z,69.45
2022-11-08T20:52:51.742Z,69.46
2022-11-08T20:55:26.404Z,69.56
2022-11-08T20:57:58.085Z,70.06
2022-11-08T21:00:51.968Z,69.75
2022-11-08T21:03:22.397Z,69.63
2022-11-08T21:05:56.160Z,69.67
2022-11-08T21:08:58.417Z,69.38
2022-11-08T21:11:21.425Z,69.56
2022-11-08T21:13:53.165Z,69.92
2022-11-08T21:16:42.673Z,69.37
2022-11-08T21:19:16.914Z,69.96
2022-11-08T21:21:48.532Z,69.78
2022-11-08T21:24:21.333Z,69.91
2022-11-08T21:26:52.952Z,70.16
2022-11-08T21:29:24.598Z,69.78
2022-11-08T21:31:56.239Z,70.07
2022-11-08T21:34:32.620Z,70.20
2022-11-08T21:37:04.553Z,70.54
2022-11-08T21:39:36.725Z,70.66
2022-11-08T21:42:08.382Z,70.17
2022-11-08T21:44:40.032Z,70.34
2022-11-08T21:47:11.671Z,70.56
2022-11-08T21:49:43.339Z,70.58
2022-11-08T21:52:15.007Z,70.89
2022-11-08T21:54:46.645Z,70.47
2022-11-08T21:57:18.349Z,70.86
2022-11-08T21:59:52.786Z,70.94
2022-11-08T22:02:24.476Z,71.36
2022-11-08T22:04:56.144Z,71.08
2022-11-08T22:07:27.888Z,70.70
2022-11-08T22:09:59.929Z,71.20
2022-11-08T22:12:31.609Z,70.77
2022-11-08T22:15:03.558Z,70.96
2022-11-08T22:17:42.878Z,70.88
2022-11-08T22:20:21.920Z,71.02
2022-11-08T22:22:54.814Z,71.24
2022-11-08T22:25:28.501Z,71.27
2022-11-08T22:28:00.120Z,71.22
2022-11-08T22:30:33.786Z,71.65
2022-11-08T22:33:05.414Z,71.22
2022-11-08T22:35:37.048Z,71.60
2022-11-08T22:38:11.601Z,72.02
2022-11-08T22:40:45.511Z,71.37
2022-11-08T22:43:17.233Z,72.17
2022-11-08T22:45:48.888Z,71.98
2022-11-08T22:48:20.887Z,72.16
2022-11-08T22:50:52.661Z,72.56
2022-11-08T22:53:24.825Z,72.10
2022-11-08T22:55:56.857Z,72.29
2022-11-08T22:58:29.549Z,72.28
2022-11-08T23:01:01.235Z,72.62
2022-11-08T23:03:32.833Z,72.99
2022-11-08T23:06:04.878Z,73.02
2022-11-08T23:08:36.928Z,73.36
2022-11-08T23:11:27.304Z,72.61
2022-11-08T23:14:17.671Z,72.78
2022-11-08T23:16:49.315Z,72.92
2022-11-08T23:19:41.781Z,73.07
2022-11-08T23:22:34.837Z,72.74
2022-11-08T23:25:06.882Z,73.03
2022-11-08T23:27:57.211Z,73.26
2022-11-08T23:30:47.721Z,73.15
2022-11-08T23:33:19.508Z,73.08
2022-11-08T23:36:16.904Z,73.18
2022-11-08T23:38:48.759Z,72.78
2022-11-08T23:41:39.219Z,72.41
2022-11-08T23:44:26.725Z,73.11
2022-11-08T23:47:00.852Z,73.21
2022-11-08T23:49:32.487Z,72.61
2022-11-08T23:52:04.264Z,72.62
2022-11-08T23:54:35.841Z,73.05
2022-11-08T23:57:07.428Z,73.04
2022-11-08T23:59:39.009Z,72.47
